Time;durP1;ratioP1;P1;durP2;ratioP2;P2;SDS_P1;SDS_P2;PMS_P1;PMS_P2;Temp;Humidity;BMP_temperature;BMP_pressure;BME280_temperature;BME280_humidity;BME280_pressure;Samples;Min_cycle;Max_cycle;Signal;HPM_P1;HPM_P2
2023/02/05 00:00:26;;;;;;;;;;;19.10;50.60;;;;;;7674708;23;19932;-72
2023/02/05 00:03:26;;;;;;;;;;;19.20;50.70;;;;;;7672764;23;19958;-72
2023/02/05 00:06:27;;;;;;;;;;;19.10;50.60;;;;;;7672832;23;19904;-72
2023/02/05 00:09:28;;;;;;;;;;;19.20;50.70;;;;;;7674703;23;19987;-71
2023/02/05 00:12:29;;;;;;;;;;;19.10;50.60;;;;;;7674540;23;20260;-74
2023/02/05 00:15:29;;;;;;;;;;;19.10;50.60;;;;;;7675008;23;19911;-72
2023/02/05 00:18:30;;;;;;;;;;;19.10;50.60;;;;;;7672994;23;19908;-73
2023/02/05 00:21:31;;;;;;;;;;;19.20;50.70;;;;;;7673268;23;19904;-73
2023/02/05 00:24:32;;;;;;;;;;;19.10;50.60;;;;;;7673875;23;20239;-72
2023/02/05 00:27:33;;;;;;;;;;;19.10;50.60;;;;;;7672800;23;20275;-72
2023/02/05 00:30:33;;;;;;;;;;;19.10;50.60;;;;;;7672703;23;19904;-72
2023/02/05 00:33:34;;;;;;;;;;;19.20;50.70;;;;;;7674172;23;20519;-73
2023/02/05 00:36:35;;;;;;;;;;;19.10;50.60;;;;;;7674222;23;19904;-72
2023/02/05 00:39:36;;;;;;;;;;;19.10;51.30;;;;;;7674034;23;19912;-72
2023/02/05 00:42:37;;;;;;;;;;;19.10;50.60;;;;;;7674487;23;19955;-73
2023/02/05 00:45:37;;;;;;;;;;;19.10;50.60;;;;;;7672675;23;19912;-72
2023/02/05 00:48:38;;;;;;;;;;;19.10;50.60;;;;;;7672794;23;19916;-71
2023/02/05 00:51:39;;;;;;;;;;;19.10;50.60;;;;;;7674248;23;19942;-73
2023/02/05 00:54:39;;;;;;;;;;;19.10;50.60;;;;;;7672360;23;19983;-72
2023/02/05 00:57:40;;;;;;;;;;;19.10;50.60;;;;;;7674040;23;19904;-72
2023/02/05 01:00:41;;;;;;;;;;;19.10;50.60;;;;;;7672341;23;19966;-72
2023/02/05 01:03:42;;;;;;;;;;;19.10;50.70;;;;;;7672637;23;19935;-72
2023/02/05 01:06:42;;;;;;;;;;;19.10;50.60;;;;;;7673714;23;19908;-72
2023/02/05 01:09:43;;;;;;;;;;;19.10;50.60;;;;;;7672506;23;19908;-72
2023/02/05 01:12:44;;;;;;;;;;;19.10;50.60;;;;;;7673594;23;19995;-72
2023/02/05 01:15:45;;;;;;;;;;;19.10;50.60;;;;;;7672328;23;20328;-72
2023/02/05 01:18:45;;;;;;;;;;;19.10;50.60;;;;;;7672272;23;19911;-74
2023/02/05 01:21:46;;;;;;;;;;;19.20;50.70;;;;;;7672653;23;19978;-72
2023/02/05 01:24:46;;;;;;;;;;;19.10;50.60;;;;;;7673803;23;19916;-72
2023/02/05 01:27:47;;;;;;;;;;;19.10;50.60;;;;;;7673706;23;20300;-72
2023/02/05 01:30:48;;;;;;;;;;;19.10;50.60;;;;;;7673813;23;20329;-72
2023/02/05 01:33:49;;;;;;;;;;;19.10;50.60;;;;;;7673513;23;19928;-72
2023/02/05 01:36:49;;;;;;;;;;;19.10;50.60;;;;;;7672204;23;19913;-72
2023/02/05 01:39:50;;;;;;;;;;;19.10;50.60;;;;;;7673546;23;19915;-72
2023/02/05 01:42:50;;;;;;;;;;;19.10;50.60;;;;;;7673938;23;19975;-73
2023/02/05 01:46:02;;;;;;;;;;;19.10;50.60;;;;;;7673410;23;19904;-71
2023/02/05 01:49:04;;;;;;;;;;;19.10;50.60;;;;;;7673678;23;19916;-72
2023/02/05 01:52:07;;;;;;;;;;;19.10;50.60;;;;;;7671774;23;20346;-72
2023/02/05 01:55:08;;;;;;;;;;;19.10;50.50;;;;;;7673395;23;19904;-72
2023/02/05 01:58:09;;;;;;;;;;;19.10;50.50;;;;;;7673231;23;19909;-72
2023/02/05 02:01:09;;;;;;;;;;;19.10;50.60;;;;;;7672073;23;20282;-72
2023/02/05 02:04:13;;;;;;;;;;;19.10;50.60;;;;;;7671875;23;19931;-71
2023/02/05 02:07:15;;;;;;;;;;;19.10;50.50;;;;;;7671508;23;19935;-72
2023/02/05 02:10:17;;;;;;;;;;;19.10;50.50;;;;;;7671901;23;19915;-72
2023/02/05 02:13:19;;;;;;;;;;;19.10;50.50;;;;;;7671757;23;19904;-72
2023/02/05 02:16:20;;;;;;;;;;;19.10;50.60;;;;;;7671712;23;19931;-72
2023/02/05 02:19:25;;;;;;;;;;;19.10;50.50;;;;;;7672925;23;20328;-72
2023/02/05 02:22:25;;;;;;;;;;;19.10;50.50;;;;;;7673461;23;20323;-72
2023/02/05 02:25:41;;;;;;;;;;;19.10;50.50;;;;;;7670995;23;19932;-72
2023/02/05 02:28:49;;;;;;;;;;;19.10;50.50;;;;;;7672861;23;19916;-72
2023/02/05 02:31:55;;;;;;;;;;;19.10;50.50;;;;;;7673281;23;19912;-72
2023/02/05 02:35:02;;;;;;;;;;;19.10;50.50;;;;;;7671654;23;20007;-72
2023/02/05 02:38:24;;;;;;;;;;;19.10;50.50;;;;;;7672906;23;20020;-72
2023/02/05 02:41:30;;;;;;;;;;;19.10;51.20;;;;;;7671227;23;19958;-72
2023/02/05 02:44:33;;;;;;;;;;;19.10;50.50;;;;;;7673107;23;19936;-72
2023/02/05 02:47:37;;;;;;;;;;;19.10;50.40;;;;;;7673147;23;19912;-72
2023/02/05 02:50:40;;;;;;;;;;;19.10;50.50;;;;;;7672946;23;19904;-72
2023/02/05 02:53:43;;;;;;;;;;;19.10;50.50;;;;;;7671562;23;19908;-72
2023/02/05 02:56:44;;;;;;;;;;;19.10;50.50;;;;;;7671108;23;19990;-73
2023/02/05 02:59:46;;;;;;;;;;;19.10;51.20;;;;;;7673160;23;20022;-72
2023/02/05 03:02:47;;;;;;;;;;;19.10;51.20;;;;;;7671214;23;20279;-73
2023/02/05 03:05:48;;;;;;;;;;;19.10;50.50;;;;;;7673011;23;19975;-72
2023/02/05 03:09:05;;;;;;;;;;;19.10;50.50;;;;;;7671146;23;20376;-73
2023/02/05 03:12:06;;;;;;;;;;;19.10;50.50;;;;;;7671185;23;19912;-72
2023/02/05 03:15:08;;;;;;;;;;;19.10;50.50;;;;;;7670638;23;19908;-72
2023/02/05 03:18:10;;;;;;;;;;;19.10;50.50;;;;;;7670612;23;20255;-72
2023/02/05 03:21:14;;;;;;;;;;;19.10;50.50;;;;;;7671993;23;19917;-72
2023/02/05 03:24:16;;;;;;;;;;;19.10;50.50;;;;;;7670105;23;20317;-72
2023/02/05 03:27:17;;;;;;;;;;;19.10;50.40;;;;;;7670784;23;19909;-72
2023/02/05 03:30:17;;;;;;;;;;;19.10;50.50;;;;;;7670842;23;19904;-72
2023/02/05 03:33:33;;;;;;;;;;;19.10;50.50;;;;;;7673107;23;19990;-72
2023/02/05 03:36:40;;;;;;;;;;;19.10;50.40;;;;;;7674179;23;19919;-72
2023/02/05 03:40:01;;;;;;;;;;;19.10;50.40;;;;;;7673522;23;19905;-72
2023/02/05 03:43:24;;;;;;;;;;;19.10;50.50;;;;;;7673804;23;19904;-72
2023/02/05 03:46:26;;;;;;;;;;;19.10;50.40;;;;;;7644099;23;19905;-72
2023/02/05 03:49:37;;;;;;;;;;;19.10;50.40;;;;;;7673237;23;19935;-72
2023/02/05 03:52:41;;;;;;;;;;;19.10;50.40;;;;;;7675109;23;19904;-73
2023/02/05 03:55:45;;;;;;;;;;;19.10;50.40;;;;;;7673369;23;19908;-73
2023/02/05 03:58:47;;;;;;;;;;;19.10;50.40;;;;;;7674723;23;19911;-72
2023/02/05 04:01:48;;;;;;;;;;;19.10;50.40;;;;;;7674923;23;19908;-72
2023/02/05 04:04:49;;;;;;;;;;;19.10;50.40;;;;;;7674838;23;19915;-72
2023/02/05 04:07:50;;;;;;;;;;;19.10;50.40;;;;;;7674565;23;19912;-72
2023/02/05 04:10:51;;;;;;;;;;;19.10;50.40;;;;;;7673131;23;19998;-71
2023/02/05 04:13:51;;;;;;;;;;;19.10;50.40;;;;;;7674401;23;19987;-72
2023/02/05 04:16:52;;;;;;;;;;;19.10;50.40;;;;;;7673238;23;19958;-72
2023/02/05 04:19:52;;;;;;;;;;;19.10;50.40;;;;;;7672818;23;19915;-72
2023/02/05 04:22:53;;;;;;;;;;;19.10;50.40;;;;;;7672685;23;19908;-72
2023/02/05 04:25:54;;;;;;;;;;;19.10;50.40;;;;;;7674399;23;19935;-72
2023/02/05 04:28:54;;;;;;;;;;;19.10;50.40;;;;;;7672562;23;19916;-72
2023/02/05 04:31:55;;;;;;;;;;;19.10;50.40;;;;;;7674423;23;20027;-72
2023/02/05 04:34:55;;;;;;;;;;;19.10;50.40;;;;;;7672924;23;20347;-72
2023/02/05 04:37:56;;;;;;;;;;;19.10;50.40;;;;;;7674155;23;19908;-72
2023/02/05 04:40:56;;;;;;;;;;;19.10;50.40;;;;;;7672480;23;19904;-72
2023/02/05 04:43:57;;;;;;;;;;;19.10;50.40;;;;;;7674196;23;19911;-72
2023/02/05 04:46:58;;;;;;;;;;;19.10;50.40;;;;;;7673687;23;19923;-72
2023/02/05 04:49:59;;;;;;;;;;;19.10;50.40;;;;;;7674489;23;20217;-72
2023/02/05 04:53:01;;;;;;;;;;;19.10;50.30;;;;;;7672611;23;19904;-72
2023/02/05 04:56:12;;;;;;;;;;;19.10;50.40;;;;;;7672648;23;20363;-72
2023/02/05 05:02:51;;;;;;;;;;;19.10;50.20;;;;;;7674194;23;19904;-72
2023/02/05 05:05:51;;;;;;;;;;;19.10;50.30;;;;;;7672501;23;19910;-71
2023/02/05 05:08:53;;;;;;;;;;;19.10;50.30;;;;;;7673691;23;19991;-72
2023/02/05 05:11:55;;;;;;;;;;;19.10;50.30;;;;;;7672229;23;20347;-71
2023/02/05 05:14:55;;;;;;;;;;;19.10;50.30;;;;;;7672219;23;19911;-72
2023/02/05 05:17:56;;;;;;;;;;;19.10;50.30;;;;;;7674175;23;19904;-72
2023/02/05 05:20:56;;;;;;;;;;;19.10;50.20;;;;;;7673515;23;19962;-72
2023/02/05 05:23:57;;;;;;;;;;;19.10;50.20;;;;;;7672018;23;19945;-72
2023/02/05 05:26:58;;;;;;;;;;;19.10;50.30;;;;;;7673196;23;19991;-72
2023/02/05 05:29:59;;;;;;;;;;;19.10;50.30;;;;;;7673782;23;19904;-72
2023/02/05 05:33:00;;;;;;;;;;;19.10;50.30;;;;;;7673287;23;19970;-73
2023/02/05 05:36:00;;;;;;;;;;;19.10;50.30;;;;;;7673846;23;19908;-71
2023/02/05 05:45:39;;;;;;;;;;;19.10;50.30;;;;;;7673439;23;19908;-72
2023/02/05 05:48:40;;;;;;;;;;;19.10;50.30;;;;;;7673343;23;20286;-72
2023/02/05 05:51:41;;;;;;;;;;;19.10;50.30;;;;;;7673458;23;19904;-72
2023/02/05 05:54:41;;;;;;;;;;;19.10;50.20;;;;;;7673425;23;19905;-72
2023/02/05 05:57:42;;;;;;;;;;;19.10;50.20;;;;;;7673543;23;19911;-72
2023/02/05 06:00:43;;;;;;;;;;;19.10;50.30;;;;;;7673516;23;19962;-72
2023/02/05 06:03:43;;;;;;;;;;;19.10;50.20;;;;;;7673102;23;19904;-72
2023/02/05 06:06:44;;;;;;;;;;;19.10;50.20;;;;;;7672806;23;20000;-72
2023/02/05 06:09:45;;;;;;;;;;;19.10;50.30;;;;;;7673735;23;19923;-72
2023/02/05 06:12:46;;;;;;;;;;;19.10;50.20;;;;;;7672056;23;19909;-72
2023/02/05 06:15:47;;;;;;;;;;;19.10;50.30;;;;;;7673227;23;19917;-72
2023/02/05 06:18:48;;;;;;;;;;;19.10;50.20;;;;;;7673143;23;19911;-73
2023/02/05 06:21:48;;;;;;;;;;;19.10;50.20;;;;;;7671688;23;19908;-71
2023/02/05 06:24:49;;;;;;;;;;;19.10;50.20;;;;;;7671383;23;19958;-72
2023/02/05 06:27:49;;;;;;;;;;;19.10;50.20;;;;;;7672959;23;19912;-72
2023/02/05 06:30:50;;;;;;;;;;;19.10;50.30;;;;;;7673338;23;19955;-72
2023/02/05 06:33:51;;;;;;;;;;;19.10;50.20;;;;;;7671115;23;19935;-73
2023/02/05 06:36:51;;;;;;;;;;;19.10;50.20;;;;;;7671416;23;19991;-72
2023/02/05 06:39:52;;;;;;;;;;;19.10;50.20;;;;;;7671574;23;19927;-72
2023/02/05 06:42:52;;;;;;;;;;;19.10;50.20;;;;;;7673057;23;19959;-72
2023/02/05 06:45:55;;;;;;;;;;;19.10;50.20;;;;;;7669909;23;21315;-72
2023/02/05 06:48:55;;;;;;;;;;;19.10;50.20;;;;;;7673190;23;19915;-72
2023/02/05 06:51:56;;;;;;;;;;;19.10;50.20;;;;;;7673204;23;19904;-72
2023/02/05 06:54:56;;;;;;;;;;;19.20;50.30;;;;;;7673107;23;19905;-73
2023/02/05 06:57:57;;;;;;;;;;;19.10;50.20;;;;;;7671218;23;19936;-72
2023/02/05 07:00:57;;;;;;;;;;;19.10;50.20;;;;;;7673069;23;19911;-72
2023/02/05 07:03:58;;;;;;;;;;;19.10;50.20;;;;;;7673034;23;19905;-72
2023/02/05 07:06:59;;;;;;;;;;;19.10;50.20;;;;;;7672673;23;20304;-72
2023/02/05 07:09:59;;;;;;;;;;;19.10;50.20;;;;;;7673395;23;19975;-72
2023/02/05 07:13:00;;;;;;;;;;;19.10;50.20;;;;;;7675700;23;19932;-73
2023/02/05 07:16:04;;;;;;;;;;;19.10;50.20;;;;;;7673506;23;19987;-72
2023/02/05 07:19:04;;;;;;;;;;;19.10;50.20;;;;;;7673688;23;19904;-72
2023/02/05 07:22:05;;;;;;;;;;;19.20;50.30;;;;;;7673890;23;19904;-72
2023/02/05 07:25:06;;;;;;;;;;;19.10;50.20;;;;;;7673829;23;19927;-72
2023/02/05 07:28:07;;;;;;;;;;;19.10;50.20;;;;;;7672928;23;19943;-72
2023/02/05 07:31:15;;;;;;;;;;;19.10;50.20;;;;;;7673909;23;19911;-72
2023/02/05 07:34:16;;;;;;;;;;;19.10;50.20;;;;;;7674952;23;19999;-72
2023/02/05 07:37:17;;;;;;;;;;;19.10;50.20;;;;;;7675285;23;19918;-72
2023/02/05 07:40:17;;;;;;;;;;;19.10;50.20;;;;;;7673584;23;19917;-72
2023/02/05 07:43:18;;;;;;;;;;;19.10;50.20;;;;;;7675516;23;19987;-72
2023/02/05 07:46:19;;;;;;;;;;;19.10;50.20;;;;;;7673144;23;19913;-72
2023/02/05 07:49:20;;;;;;;;;;;19.10;50.20;;;;;;7673127;23;19963;-72
2023/02/05 07:52:20;;;;;;;;;;;19.10;50.20;;;;;;7675086;23;20375;-72
2023/02/05 07:55:21;;;;;;;;;;;19.10;50.20;;;;;;7674906;23;19958;-72
2023/02/05 07:58:22;;;;;;;;;;;19.10;50.20;;;;;;7673172;23;20224;-72
2023/02/05 08:01:22;;;;;;;;;;;19.10;50.20;;;;;;7675303;23;19983;-72
2023/02/05 08:04:23;;;;;;;;;;;19.10;50.20;;;;;;7674972;23;19909;-72
2023/02/05 08:07:23;;;;;;;;;;;19.10;50.20;;;;;;7672736;23;19995;-72
2023/02/05 08:10:24;;;;;;;;;;;19.10;50.20;;;;;;7674854;23;20000;-71
2023/02/05 08:13:24;;;;;;;;;;;19.10;50.20;;;;;;7673014;23;19908;-72
2023/02/05 08:16:25;;;;;;;;;;;19.10;50.20;;;;;;7674890;23;19962;-72
2023/02/05 08:19:25;;;;;;;;;;;19.10;50.20;;;;;;7672934;23;20014;-72
2023/02/05 08:22:26;;;;;;;;;;;19.10;50.20;;;;;;7673430;23;19933;-72
2023/02/05 08:25:27;;;;;;;;;;;19.10;50.20;;;;;;7674119;23;19928;-72
2023/02/05 08:28:27;;;;;;;;;;;19.10;50.20;;;;;;7674063;23;19955;-72
2023/02/05 08:31:28;;;;;;;;;;;19.10;50.20;;;;;;7673072;23;19904;-72
2023/02/05 08:34:28;;;;;;;;;;;19.10;50.20;;;;;;7672771;23;20583;-72
2023/02/05 08:37:29;;;;;;;;;;;19.10;50.20;;;;;;7674032;23;20328;-72
2023/02/05 08:40:30;;;;;;;;;;;19.20;50.20;;;;;;7672636;23;20317;-72
2023/02/05 08:43:30;;;;;;;;;;;19.10;50.20;;;;;;7673079;23;19904;-71
2023/02/05 08:46:31;;;;;;;;;;;19.10;50.20;;;;;;7674444;23;19908;-72
2023/02/05 08:49:32;;;;;;;;;;;19.10;50.20;;;;;;7674033;23;19911;-72
2023/02/05 08:52:33;;;;;;;;;;;19.10;50.20;;;;;;7672701;23;19905;-72
2023/02/05 08:55:34;;;;;;;;;;;19.10;50.20;;;;;;7673886;23;19911;-72
2023/02/05 08:58:35;;;;;;;;;;;19.10;50.20;;;;;;7672502;23;19908;-72
2023/02/05 09:01:36;;;;;;;;;;;19.10;50.20;;;;;;7674183;23;19908;-72
2023/02/05 09:04:37;;;;;;;;;;;19.10;50.20;;;;;;7672832;23;19913;-73
2023/02/05 09:07:38;;;;;;;;;;;19.10;50.20;;;;;;7671957;23;19912;-72
2023/02/05 09:10:42;;;;;;;;;;;19.10;50.20;;;;;;7672610;23;20398;-72
2023/02/05 09:13:42;;;;;;;;;;;19.10;50.20;;;;;;7673734;23;20393;-72
2023/02/05 09:16:43;;;;;;;;;;;19.10;50.20;;;;;;7672161;23;19905;-72
2023/02/05 09:19:43;;;;;;;;;;;19.10;50.20;;;;;;7673788;23;19904;-72
2023/02/05 09:22:44;;;;;;;;;;;19.10;50.20;;;;;;7672871;23;19911;-72
2023/02/05 09:25:45;;;;;;;;;;;19.10;50.20;;;;;;7674015;23;19928;-72
2023/02/05 09:28:46;;;;;;;;;;;19.10;50.20;;;;;;7673061;23;19912;-72
2023/02/05 09:31:47;;;;;;;;;;;19.10;50.20;;;;;;7672409;23;20321;-72
2023/02/05 09:34:48;;;;;;;;;;;19.10;50.20;;;;;;7673458;23;19923;-72
2023/02/05 09:37:48;;;;;;;;;;;19.10;50.20;;;;;;7673873;23;19911;-72
2023/02/05 09:40:55;;;;;;;;;;;19.10;50.20;;;;;;7673593;23;20303;-72
2023/02/05 09:44:03;;;;;;;;;;;19.10;50.20;;;;;;7672322;23;19939;-72
2023/02/05 09:47:15;;;;;;;;;;;19.10;50.20;;;;;;7673492;23;19909;-72
2023/02/05 09:50:28;;;;;;;;;;;19.10;50.10;;;;;;7671856;23;19991;-72
2023/02/05 09:53:32;;;;;;;;;;;19.10;50.10;;;;;;7673718;23;19908;-72
2023/02/05 09:56:33;;;;;;;;;;;19.10;50.20;;;;;;7672258;23;19904;-72
2023/02/05 09:59:34;;;;;;;;;;;19.10;50.20;;;;;;7673541;23;19912;-72
2023/02/05 10:02:49;;;;;;;;;;;19.10;50.10;;;;;;7671750;23;20655;-72
2023/02/05 10:06:08;;;;;;;;;;;19.10;50.10;;;;;;7672028;23;19912;-72
2023/02/05 10:09:27;;;;;;;;;;;19.10;50.10;;;;;;7671686;23;19912;-72
2023/02/05 10:12:31;;;;;;;;;;;19.10;50.20;;;;;;7672076;23;19954;-72
2023/02/05 10:15:50;;;;;;;;;;;19.10;50.10;;;;;;7671758;23;19911;-72
2023/02/05 10:19:05;;;;;;;;;;;19.10;50.20;;;;;;7672983;23;20286;-72
2023/02/05 10:22:12;;;;;;;;;;;19.10;50.10;;;;;;7673301;23;19920;-72
2023/02/05 10:25:32;;;;;;;;;;;19.20;50.20;;;;;;7673562;23;19905;-73
2023/02/05 10:28:51;;;;;;;;;;;19.10;50.10;;;;;;7673317;23;19908;-72
2023/02/05 10:32:21;;;;;;;;;;;19.10;50.10;;;;;;7673934;23;19904;-73
2023/02/05 10:35:23;;;;;;;;;;;19.10;50.10;;;;;;7661132;23;20156;-73
2023/02/05 10:38:25;;;;;;;;;;;19.10;50.10;;;;;;7671945;23;19909;-72
2023/02/05 10:41:29;;;;;;;;;;;19.10;50.10;;;;;;7673092;23;20605;-72
2023/02/05 10:44:31;;;;;;;;;;;19.10;50.10;;;;;;7671575;23;19979;-73
2023/02/05 10:47:31;;;;;;;;;;;19.10;50.10;;;;;;7673384;23;19912;-73
2023/02/05 10:50:32;;;;;;;;;;;19.10;50.10;;;;;;7671275;23;19916;-73
2023/02/05 10:53:35;;;;;;;;;;;19.10;50.10;;;;;;7672933;23;19916;-73
2023/02/05 10:56:35;;;;;;;;;;;19.10;50.10;;;;;;7672030;23;19984;-74
2023/02/05 10:59:40;;;;;;;;;;;19.10;50.10;;;;;;7671698;23;19904;-73
2023/02/05 11:02:42;;;;;;;;;;;19.10;50.10;;;;;;7673389;23;19935;-75
2023/02/05 11:05:45;;;;;;;;;;;19.10;50.10;;;;;;7660869;23;19916;-74
2023/02/05 11:08:46;;;;;;;;;;;19.10;50.10;;;;;;7670926;23;19947;-74
2023/02/05 11:11:50;;;;;;;;;;;19.10;50.10;;;;;;7670685;23;19999;-74
2023/02/05 11:14:54;;;;;;;;;;;19.10;50.10;;;;;;7671699;23;20236;-76
2023/02/05 11:18:00;;;;;;;;;;;19.10;50.70;;;;;;7670459;23;19988;-74
2023/02/05 11:21:03;;;;;;;;;;;19.20;50.20;;;;;;7669842;23;19904;-74
2023/02/05 11:24:03;;;;;;;;;;;19.20;50.20;;;;;;7671541;23;20367;-74
2023/02/05 11:27:22;;;;;;;;;;;19.10;50.10;;;;;;7669552;23;19920;-75
2023/02/05 11:30:29;;;;;;;;;;;19.10;50.20;;;;;;7671989;23;19951;-74
2023/02/05 11:33:30;;;;;;;;;;;19.10;50.20;;;;;;7672023;23;19931;-74
2023/02/05 11:36:30;;;;;;;;;;;19.20;50.30;;;;;;7671766;23;19905;-74
2023/02/05 11:39:34;;;;;;;;;;;19.10;50.20;;;;;;7670304;23;19962;-74
2023/02/05 11:42:35;;;;;;;;;;;19.10;50.20;;;;;;7670091;23;20320;-74
2023/02/05 11:45:38;;;;;;;;;;;19.10;50.20;;;;;;7669698;23;19905;-74
2023/02/05 11:48:54;;;;;;;;;;;19.10;51.00;;;;;;7670058;23;20280;-74
2023/02/05 11:51:55;;;;;;;;;;;19.10;50.40;;;;;;7670095;23;19912;-75
2023/02/05 11:54:56;;;;;;;;;;;19.10;50.40;;;;;;7669389;23;19905;-74
2023/02/05 11:57:58;;;;;;;;;;;19.10;50.40;;;;;;7671736;23;19904;-74
2023/02/05 12:01:04;;;;;;;;;;;19.10;50.50;;;;;;7671769;23;19911;-73
2023/02/05 12:04:10;;;;;;;;;;;19.10;50.50;;;;;;7673425;23;19912;-74
2023/02/05 12:07:14;;;;;;;;;;;19.10;50.50;;;;;;7671928;23;19915;-74
2023/02/05 12:10:25;;;;;;;;;;;19.10;50.50;;;;;;7672080;23;20363;-76
2023/02/05 12:13:28;;;;;;;;;;;19.10;50.60;;;;;;7671976;23;20198;-74
2023/02/05 12:16:53;;;;;;;;;;;19.10;50.60;;;;;;7671977;23;19916;-73
2023/02/05 12:19:57;;;;;;;;;;;19.10;50.70;;;;;;7672427;23;19904;-74
2023/02/05 12:23:16;;;;;;;;;;;19.10;50.70;;;;;;7673926;23;19905;-75
2023/02/05 12:26:25;;;;;;;;;;;19.10;50.70;;;;;;7671172;23;19962;-76
2023/02/05 12:29:38;;;;;;;;;;;19.10;50.70;;;;;;7675067;23;19991;-74
2023/02/05 12:33:04;;;;;;;;;;;19.10;50.70;;;;;;7672860;23;19924;-74
2023/02/05 12:36:23;;;;;;;;;;;19.10;50.70;;;;;;7650203;23;20195;-74
2023/02/05 12:39:34;;;;;;;;;;;19.10;50.70;;;;;;7673308;23;19904;-72
2023/02/05 12:42:36;;;;;;;;;;;19.10;50.70;;;;;;7673281;23;20017;-72
2023/02/05 12:45:55;;;;;;;;;;;19.10;50.70;;;;;;7674592;23;19994;-72
2023/02/05 12:49:13;;;;;;;;;;;19.10;50.70;;;;;;7673371;23;19908;-72
2023/02/05 12:52:19;;;;;;;;;;;19.10;50.70;;;;;;7668275;23;20225;-72
2023/02/05 12:55:41;;;;;;;;;;;19.10;50.70;;;;;;7672842;23;20351;-74
2023/02/05 12:58:46;;;;;;;;;;;19.10;50.70;;;;;;7675027;23;19905;-71
2023/02/05 13:01:55;;;;;;;;;;;19.10;50.70;;;;;;7674566;23;19982;-71
2023/02/05 13:05:04;;;;;;;;;;;19.20;50.80;;;;;;7672655;23;19905;-71
2023/02/05 13:08:17;;;;;;;;;;;19.20;50.70;;;;;;7673825;23;20283;-72
2023/02/05 13:11:24;;;;;;;;;;;19.20;50.70;;;;;;7673116;23;19980;-72
2023/02/05 13:14:27;;;;;;;;;;;19.10;50.70;;;;;;7675421;23;19905;-72
2023/02/05 13:17:29;;;;;;;;;;;19.10;50.70;;;;;;7674140;23;19936;-72
2023/02/05 13:31:00;;;;;;;;;;;19.20;50.70;;;;;;7674782;23;19908;-73
2023/02/05 13:34:02;;;;;;;;;;;19.20;50.80;;;;;;7673809;23;19916;-70
2023/02/05 13:37:10;;;;;;;;;;;19.10;50.70;;;;;;7673093;23;19935;-72
2023/02/05 13:40:29;;;;;;;;;;;19.20;50.80;;;;;;7671954;23;19911;-75
2023/02/05 13:43:38;;;;;;;;;;;19.10;50.70;;;;;;7673888;23;19916;-71
2023/02/05 13:46:47;;;;;;;;;;;19.10;50.80;;;;;;7671759;23;19908;-71
2023/02/05 13:49:55;;;;;;;;;;;19.20;50.80;;;;;;7673928;23;20350;-72
2023/02/05 13:52:58;;;;;;;;;;;19.20;50.80;;;;;;7673980;23;19905;-71
2023/02/05 13:56:11;;;;;;;;;;;19.20;50.90;;;;;;7673095;23;19935;-72
2023/02/05 13:59:17;;;;;;;;;;;19.10;50.70;;;;;;7673785;23;19905;-71
2023/02/05 14:02:32;;;;;;;;;;;19.10;50.70;;;;;;7673727;23;19912;-72
2023/02/05 14:05:38;;;;;;;;;;;19.10;50.70;;;;;;7672827;23;19904;-72
2023/02/05 14:08:39;;;;;;;;;;;19.20;50.80;;;;;;7673057;23;19908;-73
2023/02/05 14:11:59;;;;;;;;;;;19.10;50.80;;;;;;7673394;23;20295;-73
2023/02/05 14:15:15;;;;;;;;;;;19.10;50.80;;;;;;7670867;23;19914;-73
2023/02/05 14:18:37;;;;;;;;;;;19.10;50.80;;;;;;7670004;23;19905;-72
2023/02/05 14:21:44;;;;;;;;;;;19.20;51.50;;;;;;7672398;23;19908;-72
2023/02/05 14:24:46;;;;;;;;;;;19.30;51.00;;;;;;7669731;23;19908;-72
2023/02/05 14:27:47;;;;;;;;;;;19.40;51.00;;;;;;7670774;23;20256;-72
2023/02/05 14:30:52;;;;;;;;;;;19.40;51.20;;;;;;7670934;23;20371;-71
2023/02/05 14:33:52;;;;;;;;;;;19.50;51.40;;;;;;7672153;23;19920;-73
2023/02/05 14:36:53;;;;;;;;;;;19.60;51.10;;;;;;7670527;23;19908;-73
2023/02/05 14:39:55;;;;;;;;;;;19.60;50.90;;;;;;7665780;23;19908;-73
2023/02/05 14:43:01;;;;;;;;;;;19.60;50.70;;;;;;7664508;23;20402;-73
2023/02/05 14:46:18;;;;;;;;;;;19.70;50.60;;;;;;7664120;23;19951;-72
2023/02/05 14:49:21;;;;;;;;;;;19.70;50.60;;;;;;7664458;23;19915;-72
2023/02/05 14:52:21;;;;;;;;;;;19.80;50.70;;;;;;7673354;23;20503;-72
2023/02/05 14:55:42;;;;;;;;;;;20.00;50.40;;;;;;7670628;23;19905;-72
2023/02/05 14:58:44;;;;;;;;;;;20.00;50.10;;;;;;7670592;23;19905;-72
2023/02/05 15:01:48;;;;;;;;;;;20.00;50.00;;;;;;7673686;23;19912;-73
2023/02/05 15:04:50;;;;;;;;;;;20.00;50.20;;;;;;7673122;23;19955;-71
2023/02/05 15:07:53;;;;;;;;;;;20.00;50.30;;;;;;7673947;23;19908;-72
2023/02/05 15:11:03;;;;;;;;;;;19.90;50.30;;;;;;7673651;23;19905;-73
2023/02/05 15:14:23;;;;;;;;;;;19.90;50.20;;;;;;7672813;23;19912;-71
2023/02/05 15:17:28;;;;;;;;;;;19.90;50.20;;;;;;7673351;23;19904;-72
2023/02/05 15:20:30;;;;;;;;;;;19.90;50.20;;;;;;7670408;23;19915;-71
2023/02/05 15:23:36;;;;;;;;;;;19.90;50.20;;;;;;7673984;23;19911;-70
2023/02/05 15:26:52;;;;;;;;;;;19.90;50.20;;;;;;7673880;23;19904;-70
2023/02/05 15:29:54;;;;;;;;;;;19.90;50.30;;;;;;7674277;23;20252;-71
2023/02/05 15:33:01;;;;;;;;;;;19.90;50.20;;;;;;7676013;23;19920;-71
2023/02/05 15:36:05;;;;;;;;;;;19.90;50.20;;;;;;7676027;23;19904;-71
2023/02/05 15:39:18;;;;;;;;;;;19.90;50.80;;;;;;7674033;23;19935;-74
2023/02/05 15:42:21;;;;;;;;;;;19.90;50.20;;;;;;7675433;23;19905;-71
2023/02/05 15:45:26;;;;;;;;;;;19.90;50.20;;;;;;7674956;23;19910;-71
2023/02/05 15:48:29;;;;;;;;;;;19.90;50.10;;;;;;7675454;23;20288;-71
2023/02/05 15:51:32;;;;;;;;;;;19.90;50.00;;;;;;7673919;23;19944;-71
2023/02/05 15:54:34;;;;;;;;;;;19.90;50.10;;;;;;7675157;23;19912;-71
2023/02/05 15:57:35;;;;;;;;;;;19.90;50.20;;;;;;7674892;23;19927;-71
2023/02/05 16:00:38;;;;;;;;;;;19.90;50.10;;;;;;7674744;23;20011;-72
2023/02/05 16:03:39;;;;;;;;;;;19.90;49.90;;;;;;7659498;23;19904;-71
2023/02/05 16:06:41;;;;;;;;;;;19.90;49.80;;;;;;7672805;23;19909;-71
2023/02/05 16:09:44;;;;;;;;;;;19.90;49.90;;;;;;7675202;23;19905;-71
2023/02/05 16:13:04;;;;;;;;;;;19.90;49.90;;;;;;7675412;23;19905;-71
2023/02/05 16:16:10;;;;;;;;;;;19.90;49.90;;;;;;7673749;23;19950;-71
2023/02/05 16:19:16;;;;;;;;;;;19.90;49.90;;;;;;7669341;23;19904;-71
2023/02/05 16:22:36;;;;;;;;;;;19.90;50.00;;;;;;7674948;23;19979;-71
2023/02/05 16:25:41;;;;;;;;;;;19.90;50.00;;;;;;7671880;23;19911;-71
2023/02/05 16:28:46;;;;;;;;;;;19.90;50.00;;;;;;7673965;23;19908;-72
2023/02/05 16:31:46;;;;;;;;;;;19.90;49.90;;;;;;7673899;23;19905;-71
2023/02/05 16:34:47;;;;;;;;;;;19.80;49.90;;;;;;7666490;23;20288;-73
2023/02/05 16:37:48;;;;;;;;;;;19.80;49.90;;;;;;7671955;23;19966;-71
2023/02/05 16:40:50;;;;;;;;;;;19.80;49.90;;;;;;7673470;23;19904;-71
2023/02/05 16:43:52;;;;;;;;;;;19.80;50.00;;;;;;7672067;23;19928;-71
2023/02/05 16:47:10;;;;;;;;;;;19.80;50.10;;;;;;7673348;23;19904;-72
2023/02/05 16:50:29;;;;;;;;;;;19.70;49.90;;;;;;7674133;23;19911;-72
2023/02/05 16:53:31;;;;;;;;;;;19.70;49.90;;;;;;7673682;23;19963;-71
2023/02/05 16:56:34;;;;;;;;;;;19.70;50.00;;;;;;7671524;23;19923;-72
2023/02/05 16:59:45;;;;;;;;;;;19.70;50.00;;;;;;7673855;23;19935;-71
2023/02/05 17:02:46;;;;;;;;;;;19.80;50.10;;;;;;7673119;23;20324;-72
2023/02/05 17:05:54;;;;;;;;;;;19.70;50.10;;;;;;7665373;23;19951;-73
2023/02/05 17:08:54;;;;;;;;;;;19.70;49.90;;;;;;7671776;23;19909;-72
2023/02/05 17:12:15;;;;;;;;;;;19.70;50.20;;;;;;7672452;23;19998;-71
2023/02/05 17:15:15;;;;;;;;;;;19.70;50.20;;;;;;7673119;23;19912;-71
2023/02/05 17:18:19;;;;;;;;;;;19.70;50.10;;;;;;7673272;23;19904;-72
2023/02/05 17:21:21;;;;;;;;;;;19.60;50.30;;;;;;7673109;23;19913;-72
2023/02/05 17:24:24;;;;;;;;;;;19.60;50.20;;;;;;7673114;23;20332;-72
2023/02/05 17:27:30;;;;;;;;;;;19.60;50.10;;;;;;7671693;23;20324;-73
2023/02/05 17:30:31;;;;;;;;;;;19.70;50.30;;;;;;7672514;23;19908;-73
2023/02/05 17:33:32;;;;;;;;;;;19.60;50.20;;;;;;7673416;23;19916;-73
2023/02/05 17:36:32;;;;;;;;;;;19.60;50.30;;;;;;7673913;23;20243;-72
2023/02/05 17:39:33;;;;;;;;;;;19.60;50.30;;;;;;7674592;23;19904;-73
2023/02/05 17:42:33;;;;;;;;;;;19.60;50.30;;;;;;7672303;23;19912;-73
2023/02/05 17:45:36;;;;;;;;;;;19.60;50.30;;;;;;7672703;23;19975;-73
2023/02/05 17:48:36;;;;;;;;;;;19.60;50.30;;;;;;7674038;23;19908;-73
2023/02/05 17:51:40;;;;;;;;;;;19.60;50.40;;;;;;7674200;23;19911;-73
2023/02/05 17:54:41;;;;;;;;;;;19.50;50.20;;;;;;7671975;23;19904;-73
2023/02/05 17:57:42;;;;;;;;;;;19.50;50.30;;;;;;7672237;23;19927;-72
2023/02/05 18:00:42;;;;;;;;;;;19.50;50.40;;;;;;7670802;23;19904;-73
2023/02/05 18:03:43;;;;;;;;;;;19.50;50.40;;;;;;7675129;23;19904;-73
2023/02/05 18:06:45;;;;;;;;;;;19.50;50.40;;;;;;7674454;23;19955;-73
2023/02/05 18:09:46;;;;;;;;;;;19.50;50.40;;;;;;7673728;23;19904;-73